aviador You're here:

KTCM Decoded Metar

TACOMA in WA, USA
Report Time2017-04-24 12:58:00
UTC Time2017-04-24 13:12:01
Flight Rules vfr VFR
WindCalm
Visibility9999 m
Phenomena:Light Rain
Clouds:Few 029 Hf
Broken 042 Hf
Overcast 050 Hf
Ceiling4,200 ft
Temp07°C (ISA -7)
Dew Point07°C (100% RH)
AAT6.3°C
QNH1007 hPa
Density Alt-223 ft
Elevation322 ft
Report Wrong Elevation
Raw Report
KTCM 241258Z 00000KT 10SM -RA FEW029 BKN042 OVC050 07/07 A2973 RMK
SLP072 P0002 $=

Extra information for KTCM:More info

Metar Taf Metar & Taf Last 4 Metars F.Rules Stats Wind Profile Meteogram Temp Stats Airport Information Weather charts Add Link Nearby VenuesMetar ALERT Operation Metar Decoded Social comments

AIRNAV info for KTCM